createdAt,value
2023-03-21T00:03:02.748Z,95971.06
2023-03-21T00:08:04.431Z,95966.50
2023-03-21T00:13:05.961Z,95957.25
2023-03-21T00:18:07.427Z,95947.31
2023-03-21T00:23:09.040Z,95940.75
2023-03-21T00:28:10.562Z,95930.34
2023-03-21T00:33:22.099Z,95927.25
2023-03-21T00:38:27.394Z,95917.13
2023-03-21T00:43:28.949Z,95907.91
2023-03-21T00:48:30.544Z,95908.78
2023-03-21T00:53:32.090Z,95923.41
2023-03-21T00:58:33.736Z,95921.72
2023-03-21T01:03:35.275Z,95903.00
2023-03-21T01:09:14.193Z,95908.28
2023-03-21T01:14:27.670Z,95905.72
2023-03-21T01:19:44.158Z,95903.88
2023-03-21T01:24:55.127Z,95897.41
2023-03-21T01:30:00.184Z,95900.13
2023-03-21T01:35:01.789Z,95899.78
2023-03-21T01:40:04.948Z,95889.72
2023-03-21T01:45:45.425Z,95891.09
2023-03-21T01:50:49.214Z,95883.88
2023-03-21T01:56:01.072Z,95879.06
2023-03-21T02:01:19.908Z,95877.09
2023-03-21T02:06:36.174Z,95866.09
2023-03-21T02:11:46.538Z,95865.66
2023-03-21T02:17:06.807Z,95860.72
2023-03-21T02:22:21.413Z,95857.19
2023-03-21T02:27:24.948Z,95856.94
2023-03-21T02:32:55.781Z,95849.28
2023-03-21T02:38:09.298Z,95849.47
2023-03-21T02:43:23.080Z,95850.09
2023-03-21T02:48:44.742Z,95849.91
2023-03-21T02:54:26.363Z,95846.38
2023-03-21T02:59:28.693Z,95838.94
2023-03-21T03:04:33.453Z,95831.56
2023-03-21T03:10:17.033Z,95838.53
2023-03-21T03:15:37.709Z,95842.00
2023-03-21T03:21:05.295Z,95838.50
2023-03-21T03:26:12.468Z,95835.22
2023-03-21T03:31:22.729Z,95834.59
2023-03-21T03:36:33.400Z,95835.88
2023-03-21T03:42:08.010Z,95835.22
2023-03-21T03:47:34.985Z,95836.63
2023-03-21T03:52:56.070Z,95840.00
2023-03-21T03:58:03.194Z,95845.97
2023-03-21T04:03:05.189Z,95842.53
2023-03-21T04:08:06.738Z,95838.13
2023-03-21T04:13:15.386Z,95839.78
2023-03-21T04:18:23.030Z,95843.47
2023-03-21T04:23:25.173Z,95841.47
2023-03-21T04:28:26.666Z,95842.09
2023-03-21T04:33:44.674Z,95830.34
2023-03-21T04:38:46.318Z,95841.84
2023-03-21T04:43:48.023Z,95846.72
2023-03-21T04:48:49.721Z,95850.50
2023-03-21T04:53:51.476Z,95847.91
2023-03-21T04:58:53.226Z,95845.03
2023-03-21T05:03:54.942Z,95838.69
2023-03-21T05:08:58.396Z,95831.66
2023-03-21T05:14:00.100Z,95832.13
2023-03-21T05:19:03.147Z,95834.56
2023-03-21T05:24:06.482Z,95832.66
2023-03-21T05:29:09.210Z,95830.00
2023-03-21T05:34:12.418Z,95830.38
2023-03-21T05:39:14.585Z,95827.88
2023-03-21T05:44:24.445Z,95827.63
2023-03-21T05:49:26.309Z,95831.22
2023-03-21T05:54:32.120Z,95830.59
2023-03-21T05:59:34.411Z,95827.38
2023-03-21T06:04:36.277Z,95839.09
2023-03-21T06:09:37.858Z,95827.47
2023-03-21T06:14:39.433Z,95830.59
2023-03-21T06:19:50.158Z,95830.69
2023-03-21T06:24:57.269Z,95832.84
2023-03-21T06:29:58.888Z,95823.75
2023-03-21T06:35:01.747Z,95828.28
2023-03-21T06:40:04.133Z,95829.34
2023-03-21T06:45:06.347Z,95834.47
2023-03-21T06:50:08.285Z,95841.00
2023-03-21T06:55:15.629Z,95842.81
2023-03-21T07:00:18.087Z,95843.56
2023-03-21T07:05:21.613Z,95838.97
2023-03-21T07:10:23.476Z,95843.50
2023-03-21T07:15:34.818Z,95836.22
2023-03-21T07:20:37.243Z,95842.84
2023-03-21T07:25:39.011Z,95832.25
2023-03-21T07:30:41.071Z,95831.13
2023-03-21T07:35:42.534Z,95835.59
2023-03-21T07:40:45.329Z,95840.88
2023-03-21T07:45:47.092Z,95843.06
2023-03-21T07:50:49.480Z,95839.97
2023-03-21T07:55:54.902Z,95843.44
2023-03-21T08:00:58.532Z,95839.59
2023-03-21T08:06:00.555Z,95837.22
2023-03-21T08:11:03.802Z,95844.75
2023-03-21T08:16:05.646Z,95836.69
2023-03-21T08:21:09.595Z,95836.19
2023-03-21T08:26:11.177Z,95827.03
2023-03-21T08:31:13.770Z,95824.53
2023-03-21T08:36:15.299Z,95820.50
2023-03-21T08:41:16.848Z,95823.38
2023-03-21T08:46:18.391Z,95817.94
2023-03-21T08:51:20.348Z,95826.91
2023-03-21T08:56:21.906Z,95823.56
2023-03-21T09:01:23.373Z,95814.06
2023-03-21T09:06:25.048Z,95807.66
2023-03-21T09:11:26.583Z,95800.59
2023-03-21T09:16:28.116Z,95794.53
2023-03-21T09:21:29.987Z,95793.22
2023-03-21T09:26:31.678Z,95794.06
2023-03-21T09:31:33.729Z,95789.44
2023-03-21T09:36:35.356Z,95794.56
2023-03-21T09:41:58.844Z,95791.13
2023-03-21T09:47:28.103Z,95783.75
2023-03-21T09:52:56.342Z,95782.19
2023-03-21T09:58:25.421Z,95783.03
2023-03-21T10:03:32.679Z,95774.25
2023-03-21T10:08:38.771Z,95776.09
2023-03-21T10:13:46.857Z,95770.78
2023-03-21T10:18:49.260Z,95770.28
2023-03-21T10:23:53.615Z,95768.09
2023-03-21T10:28:59.153Z,95764.78
2023-03-21T10:34:11.938Z,95764.75
2023-03-21T10:39:32.264Z,95751.75
2023-03-21T10:44:35.575Z,95758.72
2023-03-21T10:50:05.369Z,95753.31
2023-03-21T10:55:27.822Z,95758.19
2023-03-21T11:00:35.869Z,95761.03
2023-03-21T11:05:40.984Z,95761.91
2023-03-21T11:10:59.622Z,95752.75
2023-03-21T11:16:11.339Z,95752.47
2023-03-21T11:21:14.835Z,95746.94
2023-03-21T11:26:22.088Z,95747.94
2023-03-21T11:31:37.472Z,95745.94
2023-03-21T11:36:39.055Z,95741.13
2023-03-21T11:41:42.674Z,95746.13
2023-03-21T11:46:44.178Z,95729.66
2023-03-21T11:51:54.582Z,95722.91
2023-03-21T11:57:29.575Z,95713.84
2023-03-21T12:02:42.087Z,95709.03
2023-03-21T12:07:49.461Z,95712.22
2023-03-21T12:13:01.031Z,95706.91
2023-03-21T12:18:36.560Z,95695.13
2023-03-21T12:23:54.268Z,95687.09
2023-03-21T12:29:17.304Z,95678.81
2023-03-21T12:34:41.699Z,95674.47
2023-03-21T12:39:47.688Z,95673.56
2023-03-21T12:44:59.601Z,95662.06
2023-03-21T12:50:09.228Z,95651.38
2023-03-21T12:55:20.127Z,95635.34
2023-03-21T13:00:44.618Z,95642.94
2023-03-21T13:06:02.346Z,95625.22
2023-03-21T13:11:06.621Z,95635.19
2023-03-21T13:16:28.111Z,95625.28
2023-03-21T13:21:48.240Z,95626.28
2023-03-21T13:27:05.282Z,95612.56
2023-03-21T13:32:15.188Z,95608.25
2023-03-21T13:37:19.130Z,95606.94
2023-03-21T13:42:29.088Z,95603.28
2023-03-21T13:47:59.376Z,95594.00
2023-03-21T13:53:03.639Z,95591.75
2023-03-21T13:58:24.321Z,95595.69
2023-03-21T14:03:30.011Z,95591.13
2023-03-21T14:08:37.388Z,95587.97
2023-03-21T14:13:50.861Z,95582.50
2023-03-21T14:19:00.651Z,95590.09
2023-03-21T14:24:05.631Z,95584.19
2023-03-21T14:29:25.118Z,95585.72
2023-03-21T14:34:31.472Z,95577.25
2023-03-21T14:39:33.585Z,95565.63
2023-03-21T14:44:53.824Z,95570.97
2023-03-21T14:49:57.175Z,95565.97
2023-03-21T14:55:00.364Z,95567.78
2023-03-21T15:00:07.064Z,95560.38
2023-03-21T15:05:29.428Z,95558.44
2023-03-21T15:10:31.807Z,95560.50
2023-03-21T15:15:33.407Z,95566.56
2023-03-21T15:20:38.322Z,95564.69
2023-03-21T15:25:40.491Z,95558.06
2023-03-21T15:30:51.972Z,95557.78
2023-03-21T15:35:56.813Z,95550.72
2023-03-21T15:41:17.369Z,95558.50
2023-03-21T15:46:40.744Z,95548.41
2023-03-21T15:51:50.881Z,95557.50
2023-03-21T15:57:02.358Z,95548.59
2023-03-21T16:02:04.372Z,95560.28
2023-03-21T16:07:15.257Z,95559.75
2023-03-21T16:12:18.863Z,95561.25
2023-03-21T16:17:34.850Z,95563.75
2023-03-21T16:22:36.304Z,95556.56
2023-03-21T16:27:37.880Z,95554.03
2023-03-21T16:32:39.439Z,95561.59
2023-03-21T16:37:41.004Z,95566.50
2023-03-21T16:42:42.436Z,95573.16
2023-03-21T16:47:43.920Z,95570.44
2023-03-21T16:52:45.418Z,95574.75
2023-03-21T16:57:47.506Z,95576.78
2023-03-21T17:02:50.943Z,95571.41
2023-03-21T17:07:54.698Z,95575.25
2023-03-21T17:12:56.218Z,95571.41
2023-03-21T17:17:57.714Z,95580.78
2023-03-21T17:22:59.967Z,95584.00
2023-03-21T17:28:01.582Z,95592.31
2023-03-21T17:33:03.209Z,95602.94
2023-03-21T17:38:06.712Z,95599.97
2023-03-21T17:43:19.684Z,95603.00
2023-03-21T17:48:21.259Z,95608.31
2023-03-21T17:53:22.727Z,95611.97
2023-03-21T17:58:24.213Z,95612.63
2023-03-21T18:03:25.697Z,95611.28
2023-03-21T18:08:27.231Z,95622.41
2023-03-21T18:13:28.731Z,95626.22
2023-03-21T18:18:30.237Z,95624.69
2023-03-21T18:23:32.252Z,95633.53
2023-03-21T18:28:39.768Z,95637.50
2023-03-21T18:33:42.312Z,95631.53
2023-03-21T18:38:44.074Z,95631.72
2023-03-21T18:44:09.173Z,95632.88
2023-03-21T18:49:48.234Z,95638.19
2023-03-21T18:54:29.124Z,95649.94
2023-03-21T18:59:33.517Z,95654.38
2023-03-21T19:04:37.534Z,95646.09
2023-03-21T19:10:01.469Z,95650.19
2023-03-21T19:15:00.735Z,95647.00
2023-03-21T19:20:02.357Z,95650.34
2023-03-21T19:25:05.689Z,95646.03
2023-03-21T19:30:15.675Z,95646.69
2023-03-21T19:35:17.559Z,95652.63
2023-03-21T19:40:19.116Z,95649.63
2023-03-21T19:45:20.669Z,95662.22
2023-03-21T19:55:44.452Z,95660.38
2023-03-21T20:00:49.939Z,95650.88
2023-03-21T20:05:51.486Z,95650.88
2023-03-21T20:10:52.943Z,95649.94
2023-03-21T20:15:55.505Z,95651.22
2023-03-21T20:20:57.773Z,95654.75
2023-03-21T20:25:59.206Z,95661.88
2023-03-21T20:31:01.001Z,95661.59
2023-03-21T20:41:25.741Z,95664.41
2023-03-21T20:46:27.627Z,95663.97
2023-03-21T20:56:50.527Z,95654.91
2023-03-21T21:01:52.080Z,95653.28
2023-03-21T21:06:53.569Z,95656.41
2023-03-21T21:12:10.838Z,95651.88
2023-03-21T21:17:54.012Z,95644.31
2023-03-21T21:22:33.889Z,95646.66
2023-03-21T21:27:35.359Z,95642.59
2023-03-21T21:32:38.167Z,95643.88
2023-03-21T21:37:39.634Z,95642.03
2023-03-21T21:42:44.681Z,95638.50
2023-03-21T21:47:46.190Z,95635.44
2023-03-21T21:52:47.675Z,95643.56
2023-03-21T21:57:49.186Z,95639.81
2023-03-21T22:02:54.123Z,95639.84
2023-03-21T22:07:56.309Z,95637.06
2023-03-21T22:12:58.660Z,95634.72
2023-03-21T22:18:00.205Z,95633.53
2023-03-21T22:23:01.683Z,95623.75
2023-03-21T22:28:03.608Z,95633.66
2023-03-21T22:33:09.653Z,95644.25
2023-03-21T22:38:11.909Z,95630.13
2023-03-21T22:43:13.371Z,95637.66
2023-03-21T22:48:15.327Z,95628.59
2023-03-21T22:53:16.814Z,95627.16
2023-03-21T22:58:18.421Z,95627.16
2023-03-21T23:03:19.935Z,95625.03
2023-03-21T23:08:21.393Z,95618.09
2023-03-21T23:13:22.841Z,95613.13
2023-03-21T23:18:24.273Z,95622.19
2023-03-21T23:23:26.257Z,95615.38
2023-03-21T23:28:27.786Z,95614.47
2023-03-21T23:33:29.273Z,95618.16
2023-03-21T23:38:30.910Z,95614.31
2023-03-21T23:43:32.413Z,95609.50
2023-03-21T23:48:33.889Z,95609.03
2023-03-21T23:53:35.388Z,95596.44
2023-03-21T23:58:36.929Z,95613.06
